West Point, IA (52656)

10:15 PM CDT on August 29, 2016 (GMT -0500)
Lang Enterprises | | Change Station
Active Advisory: Flood Warning

Elev 689 ft 40.68 °N, 91.57 °W | Updated 1 minute ago

Clear
Clear
73.4 °F
Feels Like 71 °F
N
0.0
Wind Variable Wind from ENE
Gusts 3.0 mph

Today
High -- | Low -- °F
--% Chance of Precip.
Yesterday
High -- | Low -- °F
Precip. -- in
Pressure 30.17 in
Visibility 10.0 miles
Clouds Clear
Heat Index 71 °F
Dew Point 71 °F
Humidity 92%
Rainfall 0.00 in
Snow Depth Not available.
6:30 AM 7:41 PM
Waning Crescent, 5% visible
METAR KFSW 300255Z AUTO 00000KT 10SM CLR 22/21 A3017 RMK AO2
Pressure 30.17 in
Visibility 10.0 miles
Clouds Clear
Heat Index 71 °F
Dew Point 71 °F
Humidity 92%
Rainfall 0.00 in
Snow Depth Not available.
6:30 AM 7:41 PM
Waning Crescent, 5% visible
METAR KFSW 300255Z AUTO 00000KT 10SM CLR 22/21 A3017 RMK AO2

10-Day Weather Forecast

Almanac

Astronomy

Aug. 29, 2016 Rise Set
Actual Time
Civil Twilight
Nautical Twilight
Astronomical Twilight
Moon
Length of Visible Light
Length of Day
Tomorrow will be .
, % of the Moon is Illuminated

Today's Extremes

State Highs State Lows

Community

WunderPhotos

Upload Photos

1,935,773 photos uploaded!

WunderBlog® & News

Nearby

Air Quality

  Air Quality AQ Index Pollutant
Not available.

Snow Depth

Station Depth Elevation

Earthquake Activity

City Distance Mag. Time & Date
Minimum magnitude displayed is 2.5.

Coastal Water Temperatures

Place Temperature

Stations

Nearby Weather Stations

Station Location Temp. Windchill Dew Point Humidity Wind Precip. Elev Updated Type
                   

Watches & Warnings

Flood Warning
Issued: 8:58 PM CDT Aug. 29, 2016 – National Weather Service

... Flood Warning now in effect until Saturday evening...

The Flood Warning continues for
the Mississippi River at Burlington.
* Until Saturday evening.
* At 8:00 PM Monday the stage was 14.4 feet... and steady.
* Flood stage is 15 feet.
* No flooding is occurring and minor flooding is forecast.
* Forecast... rise above flood stage Tuesday evening... and continue
rising to 15.7 feet Thursday morning. Fall below flood stage
Saturday evening.
* Impact... at 15.0 feet... agricultural flooding occurs.


Lat... Lon 4086 9110 4067 9118 4061 9142 4062 9108
      4084 9105